THA112 RJFK-RJGG
Flight info
| Callsign | THA112 |
|---|---|
| Flight time | N/A |
| Altitude | 37000 |
| Route | MIDAI M750 IMPAL Y755 CARDS |
| Aircraft | A320/M-SDE3FGHIRWY/LB1 |
Departure
| Time | 2026-04-30 14:23 |
|---|---|
| Airport | Kagoshima Airport (RJFK) |
Arrival
| Time | N/A |
|---|---|
| Airport | Chubu Centrair International Airport (RJGG) |
| Time | Latitude | Longitude | Altitude | Speed | Heading |
|---|---|---|---|---|---|
| 2026-04-30 14:07 | 31.80163 | 130.71635 | 904 ft | 0 kts | 241° |
| 2026-04-30 14:08 | 31.80128 | 130.71662 | 902 ft | 0 kts | 240° |
| 2026-04-30 14:13 | 31.80131 | 130.71670 | 902 ft | 2 kts | 240° |
| 2026-04-30 14:13 | 31.80141 | 130.71690 | 900 ft | 3 kts | 239° |
| 2026-04-30 14:13 | 31.80152 | 130.71711 | 900 ft | 3 kts | 239° |
| 2026-04-30 14:14 | 31.80162 | 130.71731 | 900 ft | 3 kts | 238° |
| 2026-04-30 14:14 | 31.80173 | 130.71751 | 901 ft | 3 kts | 236° |
| 2026-04-30 14:14 | 31.80185 | 130.71770 | 901 ft | 3 kts | 230° |
| 2026-04-30 14:14 | 31.80199 | 130.71787 | 901 ft | 3 kts | 213° |
| 2026-04-30 14:15 | 31.80213 | 130.71795 | 901 ft | 2 kts | 165° |
| 2026-04-30 14:15 | 31.80217 | 130.71794 | 901 ft | 0 kts | 150° |
| 2026-04-30 14:19 | 31.80184 | 130.71819 | 900 ft | 6 kts | 149° |
| 2026-04-30 14:19 | 31.80145 | 130.71844 | 900 ft | 7 kts | 152° |
| 2026-04-30 14:19 | 31.80099 | 130.71874 | 899 ft | 8 kts | 150° |
| 2026-04-30 14:20 | 31.80047 | 130.71910 | 898 ft | 10 kts | 149° |
| 2026-04-30 14:20 | 31.79981 | 130.71956 | 896 ft | 12 kts | 149° |
| 2026-04-30 14:20 | 31.79809 | 130.72070 | 892 ft | 16 kts | 150° |
| 2026-04-30 14:21 | 31.79708 | 130.72139 | 890 ft | 17 kts | 150° |
| 2026-04-30 14:21 | 31.79606 | 130.72208 | 888 ft | 17 kts | 150° |
| 2026-04-30 14:21 | 31.79493 | 130.72359 | 886 ft | 10 kts | 62° |
| 2026-04-30 14:22 | 31.79530 | 130.72425 | 886 ft | 9 kts | 61° |
| 2026-04-30 14:22 | 31.79583 | 130.72450 | 887 ft | 4 kts | 329° |
| 2026-04-30 14:22 | 31.79812 | 130.72294 | 891 ft | 71 kts | 330° |
| 2026-04-30 14:23 | 31.81313 | 130.71286 | 929 ft | 168 kts | 331° |
| 2026-04-30 14:23 | 31.83358 | 130.70008 | 1991 ft | 173 kts | 340° |
| 2026-04-30 14:24 | 31.85563 | 130.71352 | 2527 ft | 219 kts | 73° |
| 2026-04-30 14:24 | 31.85673 | 130.73188 | 2680 ft | 236 kts | 97° |
| 2026-04-30 14:25 | 31.84930 | 130.77240 | 3258 ft | 268 kts | 106° |
| 2026-04-30 14:25 | 31.83469 | 130.81257 | 4449 ft | 271 kts | 135° |
| 2026-04-30 14:26 | 31.80403 | 130.83787 | 5673 ft | 272 kts | 152° |
| 2026-04-30 14:26 | 31.78787 | 130.84950 | 6304 ft | 274 kts | 152° |
| 2026-04-30 14:26 | 31.75510 | 130.87324 | 7479 ft | 280 kts | 153° |
| 2026-04-30 14:27 | 31.73846 | 130.88530 | 8003 ft | 282 kts | 153° |
| 2026-04-30 14:27 | 31.72165 | 130.89740 | 8534 ft | 285 kts | 153° |
| 2026-04-30 14:27 | 31.70468 | 130.90962 | 9068 ft | 288 kts | 154° |
| 2026-04-30 14:28 | 31.67031 | 130.93438 | 10036 ft | 294 kts | 154° |
| 2026-04-30 14:28 | 31.65267 | 130.94805 | 10169 ft | 316 kts | 146° |
| 2026-04-30 14:28 | 31.63651 | 130.96688 | 10294 ft | 338 kts | 133° |
| 2026-04-30 14:28 | 31.62376 | 130.99103 | 10426 ft | 360 kts | 119° |
| 2026-04-30 14:29 | 31.61400 | 131.05106 | 10835 ft | 390 kts | 95° |
| 2026-04-30 14:29 | 31.61278 | 131.10436 | 11493 ft | 396 kts | 95° |
| 2026-04-30 14:30 | 31.61003 | 131.21337 | 12862 ft | 407 kts | 95° |
| 2026-04-30 14:31 | 31.60828 | 131.27924 | 13787 ft | 413 kts | 95° |
| 2026-04-30 14:31 | 31.60908 | 131.34730 | 14438 ft | 424 kts | 83° |
| 2026-04-30 14:31 | 31.61601 | 131.38115 | 14753 ft | 429 kts | 71° |
| 2026-04-30 14:32 | 31.64361 | 131.44368 | 15435 ft | 434 kts | 58° |
| 2026-04-30 14:32 | 31.65929 | 131.47415 | 15780 ft | 437 kts | 58° |
| 2026-04-30 14:32 | 31.67504 | 131.50489 | 16063 ft | 441 kts | 58° |
| 2026-04-30 14:33 | 31.69087 | 131.53592 | 16393 ft | 445 kts | 59° |
| 2026-04-30 14:33 | 31.72268 | 131.59832 | 17016 ft | 451 kts | 59° |
| 2026-04-30 14:33 | 31.73883 | 131.63005 | 17337 ft | 454 kts | 59° |
| 2026-04-30 14:34 | 31.75507 | 131.66198 | 17650 ft | 456 kts | 59° |
| 2026-04-30 14:34 | 31.77141 | 131.69416 | 17952 ft | 460 kts | 59° |
| 2026-04-30 14:34 | 31.78784 | 131.72653 | 18256 ft | 463 kts | 59° |
| 2026-04-30 14:34 | 31.80441 | 131.75915 | 18584 ft | 465 kts | 59° |
| 2026-04-30 14:35 | 31.83212 | 131.81374 | 19137 ft | 469 kts | 59° |
| 2026-04-30 14:35 | 31.85459 | 131.85802 | 19559 ft | 473 kts | 59° |
| 2026-04-30 14:35 | 31.87144 | 131.89126 | 19879 ft | 475 kts | 59° |
| 2026-04-30 14:36 | 31.88837 | 131.92466 | 20179 ft | 477 kts | 59° |
| 2026-04-30 14:36 | 31.90536 | 131.95825 | 20474 ft | 478 kts | 60° |
| 2026-04-30 14:36 | 31.92242 | 131.99202 | 20739 ft | 481 kts | 60° |
| 2026-04-30 14:36 | 31.93949 | 132.02588 | 21012 ft | 483 kts | 60° |
| 2026-04-30 14:37 | 31.95667 | 132.05999 | 21282 ft | 485 kts | 60° |
| 2026-04-30 14:37 | 31.97387 | 132.09423 | 21545 ft | 486 kts | 60° |
| 2026-04-30 14:37 | 31.99111 | 132.12858 | 21792 ft | 488 kts | 60° |
| 2026-04-30 14:37 | 32.00843 | 132.16304 | 22021 ft | 490 kts | 60° |
| 2026-04-30 14:38 | 32.02585 | 132.19771 | 22260 ft | 492 kts | 60° |
| 2026-04-30 14:38 | 32.04332 | 132.23246 | 22498 ft | 494 kts | 60° |
| 2026-04-30 14:38 | 32.06059 | 132.26688 | 22726 ft | 495 kts | 60° |
| 2026-04-30 14:38 | 32.07811 | 132.30187 | 22950 ft | 497 kts | 61° |
| 2026-04-30 14:39 | 32.09574 | 132.33714 | 23152 ft | 499 kts | 61° |
| 2026-04-30 14:39 | 32.11336 | 132.37246 | 23372 ft | 500 kts | 61° |
| 2026-04-30 14:39 | 32.13086 | 132.40805 | 23580 ft | 502 kts | 62° |
| 2026-04-30 14:40 | 32.16324 | 132.48115 | 23978 ft | 504 kts | 66° |
| 2026-04-30 14:40 | 32.17850 | 132.51842 | 24190 ft | 504 kts | 67° |
| 2026-04-30 14:40 | 32.19360 | 132.55586 | 24383 ft | 506 kts | 67° |
| 2026-04-30 14:40 | 32.20886 | 132.59341 | 24562 ft | 508 kts | 66° |
| 2026-04-30 14:41 | 32.22438 | 132.63090 | 24751 ft | 510 kts | 65° |
| 2026-04-30 14:41 | 32.24019 | 132.66849 | 24925 ft | 512 kts | 65° |
| 2026-04-30 14:41 | 32.25616 | 132.70610 | 25114 ft | 513 kts | 65° |
| 2026-04-30 14:41 | 32.27221 | 132.74373 | 25301 ft | 514 kts | 65° |
| 2026-04-30 14:42 | 32.28739 | 132.77941 | 25464 ft | 516 kts | 65° |
| 2026-04-30 14:42 | 32.30309 | 132.81657 | 25655 ft | 517 kts | 65° |
| 2026-04-30 14:42 | 32.31914 | 132.85474 | 25857 ft | 518 kts | 65° |
| 2026-04-30 14:42 | 32.33517 | 132.89294 | 26034 ft | 520 kts | 65° |
| 2026-04-30 14:43 | 32.35131 | 132.93136 | 26225 ft | 521 kts | 65° |
| 2026-04-30 14:43 | 32.36742 | 132.96978 | 26408 ft | 522 kts | 65° |
| 2026-04-30 14:43 | 32.37811 | 132.99532 | 26540 ft | 524 kts | 65° |
| 2026-04-30 14:43 | 32.39427 | 133.03398 | 26709 ft | 525 kts | 65° |
| 2026-04-30 14:44 | 32.41052 | 133.07283 | 26909 ft | 526 kts | 65° |
| 2026-04-30 14:44 | 32.42674 | 133.11167 | 27085 ft | 528 kts | 65° |
| 2026-04-30 14:44 | 32.44303 | 133.15074 | 27259 ft | 529 kts | 65° |
| 2026-04-30 14:44 | 32.45926 | 133.18983 | 27452 ft | 530 kts | 65° |
| 2026-04-30 14:45 | 32.47553 | 133.22908 | 27617 ft | 531 kts | 65° |
| 2026-04-30 14:45 | 32.49181 | 133.26837 | 27818 ft | 532 kts | 65° |
| 2026-04-30 14:45 | 32.50811 | 133.30767 | 28090 ft | 531 kts | 65° |
| 2026-04-30 14:45 | 32.52442 | 133.34695 | 28350 ft | 530 kts | 65° |
| 2026-04-30 14:46 | 32.54069 | 133.38614 | 28601 ft | 529 kts | 65° |
| 2026-04-30 14:46 | 32.55689 | 133.42524 | 28860 ft | 529 kts | 65° |
| 2026-04-30 14:46 | 32.57309 | 133.46441 | 29117 ft | 528 kts | 65° |
| 2026-04-30 14:46 | 32.58898 | 133.50292 | 29372 ft | 527 kts | 65° |
| 2026-04-30 14:47 | 32.60511 | 133.54182 | 29668 ft | 525 kts | 65° |
| 2026-04-30 14:47 | 32.62126 | 133.58061 | 29973 ft | 523 kts | 65° |
| 2026-04-30 14:47 | 32.63738 | 133.61916 | 30290 ft | 521 kts | 65° |
| 2026-04-30 14:47 | 32.65349 | 133.65755 | 30620 ft | 518 kts | 65° |
| 2026-04-30 14:48 | 32.66959 | 133.69573 | 30956 ft | 516 kts | 65° |
| 2026-04-30 14:48 | 32.68564 | 133.73362 | 31297 ft | 513 kts | 65° |
| 2026-04-30 14:48 | 32.70164 | 133.77124 | 31650 ft | 509 kts | 64° |
| 2026-04-30 14:48 | 32.71762 | 133.80864 | 32011 ft | 506 kts | 64° |
| 2026-04-30 14:49 | 32.73353 | 133.84572 | 32377 ft | 502 kts | 64° |
| 2026-04-30 14:49 | 32.74934 | 133.88241 | 32742 ft | 497 kts | 64° |
| 2026-04-30 14:49 | 32.76507 | 133.91874 | 33110 ft | 491 kts | 64° |
| 2026-04-30 14:49 | 32.78066 | 133.95462 | 33476 ft | 485 kts | 63° |
| 2026-04-30 14:50 | 32.81141 | 134.02482 | 34172 ft | 472 kts | 63° |
| 2026-04-30 14:50 | 32.82653 | 134.05912 | 34513 ft | 464 kts | 63° |
| 2026-04-30 14:51 | 32.85617 | 134.12589 | 35151 ft | 448 kts | 62° |
| 2026-04-30 14:51 | 32.87072 | 134.15845 | 35311 ft | 445 kts | 62° |
| 2026-04-30 14:51 | 32.90036 | 134.22432 | 34886 ft | 459 kts | 62° |
| 2026-04-30 14:52 | 32.91535 | 134.25742 | 34895 ft | 459 kts | 62° |
| 2026-04-30 14:52 | 32.94545 | 134.32329 | 35352 ft | 447 kts | 62° |
| 2026-04-30 14:52 | 32.96045 | 134.35589 | 35244 ft | 452 kts | 61° |
| 2026-04-30 14:53 | 32.99128 | 134.42244 | 34940 ft | 462 kts | 61° |
| 2026-04-30 14:53 | 33.00677 | 134.45566 | 35089 ft | 459 kts | 61° |
| 2026-04-30 14:54 | 33.03651 | 134.52448 | 34855 ft | 467 kts | 68° |
| 2026-04-30 14:54 | 33.05724 | 134.59820 | 34440 ft | 475 kts | 88° |
| 2026-04-30 14:55 | 33.05599 | 134.67665 | 33235 ft | 481 kts | 101° |
| 2026-04-30 14:55 | 33.05303 | 134.71705 | 32855 ft | 495 kts | 101° |
| 2026-04-30 14:56 | 33.04072 | 134.88113 | 32878 ft | 497 kts | 101° |
| 2026-04-30 14:56 | 33.04235 | 134.96375 | 32896 ft | 508 kts | 80° |
| 2026-04-30 14:57 | 33.05202 | 135.00442 | 32896 ft | 511 kts | 76° |
| 2026-04-30 14:58 | 33.09339 | 135.16583 | 32882 ft | 513 kts | 65° |
| 2026-04-30 14:58 | 33.11161 | 135.20242 | 32887 ft | 514 kts | 51° |
| 2026-04-30 14:58 | 33.16350 | 135.25985 | 32883 ft | 509 kts | 33° |
| 2026-04-30 15:00 | 33.30530 | 135.38776 | 32892 ft | 512 kts | 34° |
| 2026-04-30 15:01 | 33.41899 | 135.49096 | 32895 ft | 513 kts | 34° |
| 2026-04-30 15:01 | 33.50444 | 135.56871 | 32902 ft | 515 kts | 34° |
| 2026-04-30 15:02 | 33.56128 | 135.62043 | 32901 ft | 517 kts | 34° |
| 2026-04-30 15:03 | 33.70430 | 135.75109 | 32892 ft | 519 kts | 34° |
| 2026-04-30 15:04 | 33.84877 | 135.88136 | 32891 ft | 520 kts | 34° |
| 2026-04-30 15:06 | 33.99326 | 136.01258 | 32911 ft | 520 kts | 34° |
| 2026-04-30 15:07 | 34.10877 | 136.11784 | 32917 ft | 520 kts | 34° |
| 2026-04-30 15:08 | 34.22243 | 136.22190 | 32950 ft | 520 kts | 34° |
| 2026-04-30 15:09 | 34.36444 | 136.35198 | 31657 ft | 532 kts | 34° |
| 2026-04-30 15:09 | 34.42407 | 136.40505 | 31278 ft | 529 kts | 28° |
| 2026-04-30 15:10 | 34.48688 | 136.45097 | 31006 ft | 525 kts | 26° |
| 2026-04-30 15:11 | 34.61281 | 136.53869 | 30473 ft | 519 kts | 26° |
| 2026-04-30 15:11 | 34.67467 | 136.58257 | 30205 ft | 517 kts | 27° |
| 2026-04-30 15:12 | 34.76716 | 136.64889 | 29793 ft | 512 kts | 27° |
| 2026-04-30 15:13 | 34.82833 | 136.69268 | 29542 ft | 509 kts | 26° |
| 2026-04-30 15:14 | 34.91275 | 136.82381 | 29016 ft | 501 kts | 85° |
| 2026-04-30 15:14 | 34.89747 | 136.94188 | 28636 ft | 459 kts | 127° |
| 2026-04-30 15:16 | 34.78086 | 137.03618 | 27990 ft | 384 kts | 184° |
| 2026-04-30 15:17 | 34.68322 | 137.00757 | 27490 ft | 356 kts | 212° |
| 2026-04-30 15:18 | 34.57737 | 136.93146 | 26866 ft | 353 kts | 214° |
| 2026-04-30 15:19 | 34.52354 | 136.87358 | 26485 ft | 348 kts | 236° |